sensor_id;sensor_type;location;lat;lon;timestamp;P1;P2;P0
30342;PMS5003;17145;49.902;8.680;2023-02-02T00:01:12;14;14;
30342;PMS5003;17145;49.902;8.680;2023-02-02T00:03:39;15;15;
30342;PMS5003;17145;49.902;8.680;2023-02-02T00:06:07;17;15;
30342;PMS5003;17145;49.902;8.680;2023-02-02T00:08:34;15;15;
30342;PMS5003;17145;49.902;8.680;2023-02-02T00:11:02;15;14;
30342;PMS5003;17145;49.902;8.680;2023-02-02T00:13:30;13;13;
30342;PMS5003;17145;49.902;8.680;2023-02-02T00:15:57;13;13;
30342;PMS5003;17145;49.902;8.680;2023-02-02T00:18:24;10;10;
30342;PMS5003;17145;49.902;8.680;2023-02-02T00:20:52;13;11;
30342;PMS5003;17145;49.902;8.680;2023-02-02T00:23:19;14;13;
30342;PMS5003;17145;49.902;8.680;2023-02-02T00:25:48;11;11;
30342;PMS5003;17145;49.902;8.680;2023-02-02T00:28:16;15;14;
30342;PMS5003;17145;49.902;8.680;2023-02-02T00:30:43;14;10;
30342;PMS5003;17145;49.902;8.680;2023-02-02T00:33:11;11;11;
30342;PMS5003;17145;49.902;8.680;2023-02-02T00:35:39;11;11;
30342;PMS5003;17145;49.902;8.680;2023-02-02T00:38:07;15;11;
30342;PMS5003;17145;49.902;8.680;2023-02-02T00:40:34;13;11;
30342;PMS5003;17145;49.902;8.680;2023-02-02T00:43:02;13;11;
30342;PMS5003;17145;49.902;8.680;2023-02-02T00:45:30;11;11;
30342;PMS5003;17145;49.902;8.680;2023-02-02T00:47:57;11;11;
30342;PMS5003;17145;49.902;8.680;2023-02-02T00:50:24;14;13;
30342;PMS5003;17145;49.902;8.680;2023-02-02T00:52:52;15;13;
30342;PMS5003;17145;49.902;8.680;2023-02-02T00:55:20;15;15;
30342;PMS5003;17145;49.902;8.680;2023-02-02T00:57:47;15;14;
30342;PMS5003;17145;49.902;8.680;2023-02-02T01:00:15;13;13;
30342;PMS5003;17145;49.902;8.680;2023-02-02T01:02:44;13;11;
30342;PMS5003;17145;49.902;8.680;2023-02-02T01:05:12;15;14;
30342;PMS5003;17145;49.902;8.680;2023-02-02T01:07:39;13;11;
30342;PMS5003;17145;49.902;8.680;2023-02-02T01:10:09;11;11;
30342;PMS5003;17145;49.902;8.680;2023-02-02T01:12:38;13;11;
30342;PMS5003;17145;49.902;8.680;2023-02-02T01:15:06;17;15;
30342;PMS5003;17145;49.902;8.680;2023-02-02T01:17:34;9;9;
30342;PMS5003;17145;49.902;8.680;2023-02-02T01:20:03;11;10;
30342;PMS5003;17145;49.902;8.680;2023-02-02T01:22:31;10;9;
30342;PMS5003;17145;49.902;8.680;2023-02-02T01:24:58;10;10;
30342;PMS5003;17145;49.902;8.680;2023-02-02T01:27:25;10;10;
30342;PMS5003;17145;49.902;8.680;2023-02-02T01:29:53;10;9;
30342;PMS5003;17145;49.902;8.680;2023-02-02T01:32:20;10;9;
30342;PMS5003;17145;49.902;8.680;2023-02-02T01:34:47;10;10;
30342;PMS5003;17145;49.902;8.680;2023-02-02T01:37:15;9;9;
30342;PMS5003;17145;49.902;8.680;2023-02-02T01:39:42;11;10;
30342;PMS5003;17145;49.902;8.680;2023-02-02T01:42:11;10;8;
30342;PMS5003;17145;49.902;8.680;2023-02-02T01:47:28;10;9;
30342;PMS5003;17145;49.902;8.680;2023-02-02T01:49:59;10;10;
30342;PMS5003;17145;49.902;8.680;2023-02-02T01:52:27;10;9;
30342;PMS5003;17145;49.902;8.680;2023-02-02T01:54:58;7;7;
30342;PMS5003;17145;49.902;8.680;2023-02-02T01:57:33;7;6;
30342;PMS5003;17145;49.902;8.680;2023-02-02T02:00:05;8;8;
30342;PMS5003;17145;49.902;8.680;2023-02-02T02:02:35;10;8;
30342;PMS5003;17145;49.902;8.680;2023-02-02T02:05:04;5;5;
30342;PMS5003;17145;49.902;8.680;2023-02-02T02:07:33;7;7;
30342;PMS5003;17145;49.902;8.680;2023-02-02T02:10:01;7;6;
30342;PMS5003;17145;49.902;8.680;2023-02-02T02:12:28;7;6;
30342;PMS5003;17145;49.902;8.680;2023-02-02T02:14:56;8;8;
30342;PMS5003;17145;49.902;8.680;2023-02-02T02:17:29;6;6;
30342;PMS5003;17145;49.902;8.680;2023-02-02T02:20:15;7;6;
30342;PMS5003;17145;49.902;8.680;2023-02-02T02:25:40;7;6;
30342;PMS5003;17145;49.902;8.680;2023-02-02T02:31:13;9;9;
30342;PMS5003;17145;49.902;8.680;2023-02-02T02:33:53;7;7;
30342;PMS5003;17145;49.902;8.680;2023-02-02T02:36:28;8;8;
30342;PMS5003;17145;49.902;8.680;2023-02-02T02:39:05;8;7;
30342;PMS5003;17145;49.902;8.680;2023-02-02T02:41:40;12;10;
30342;PMS5003;17145;49.902;8.680;2023-02-02T02:44:13;7;7;
30342;PMS5003;17145;49.902;8.680;2023-02-02T02:46:44;10;8;
30342;PMS5003;17145;49.902;8.680;2023-02-02T02:49:13;11;11;
30342;PMS5003;17145;49.902;8.680;2023-02-02T02:51:42;8;8;
30342;PMS5003;17145;49.902;8.680;2023-02-02T02:54:11;9;9;
30342;PMS5003;17145;49.902;8.680;2023-02-02T02:56:46;10;10;
30342;PMS5003;17145;49.902;8.680;2023-02-02T02:59:28;10;10;
30342;PMS5003;17145;49.902;8.680;2023-02-02T03:02:05;8;8;
30342;PMS5003;17145;49.902;8.680;2023-02-02T03:04:45;15;15;
30342;PMS5003;17145;49.902;8.680;2023-02-02T03:07:22;10;10;
30342;PMS5003;17145;49.902;8.680;2023-02-02T03:09:53;10;10;
30342;PMS5003;17145;49.902;8.680;2023-02-02T03:12:24;15;11;
30342;PMS5003;17145;49.902;8.680;2023-02-02T03:14:51;10;10;
30342;PMS5003;17145;49.902;8.680;2023-02-02T03:17:19;11;11;
30342;PMS5003;17145;49.902;8.680;2023-02-02T03:19:46;10;10;
30342;PMS5003;17145;49.902;8.680;2023-02-02T03:22:13;14;12;
30342;PMS5003;17145;49.902;8.680;2023-02-02T03:24:41;12;10;
30342;PMS5003;17145;49.902;8.680;2023-02-02T03:27:09;11;11;
30342;PMS5003;17145;49.902;8.680;2023-02-02T03:29:37;12;11;
30342;PMS5003;17145;49.902;8.680;2023-02-02T03:32:04;15;12;
30342;PMS5003;17145;49.902;8.680;2023-02-02T03:34:31;10;8;
30342;PMS5003;17145;49.902;8.680;2023-02-02T03:36:59;14;12;
30342;PMS5003;17145;49.902;8.680;2023-02-02T03:39:26;15;12;
30342;PMS5003;17145;49.902;8.680;2023-02-02T03:41:53;14;14;
30342;PMS5003;17145;49.902;8.680;2023-02-02T03:44:21;17;14;
30342;PMS5003;17145;49.902;8.680;2023-02-02T03:46:51;20;14;
30342;PMS5003;17145;49.902;8.680;2023-02-02T03:49:19;14;14;
30342;PMS5003;17145;49.902;8.680;2023-02-02T03:51:47;16;15;
30342;PMS5003;17145;49.902;8.680;2023-02-02T03:54:15;14;14;
30342;PMS5003;17145;49.902;8.680;2023-02-02T03:56:42;14;12;
30342;PMS5003;17145;49.902;8.680;2023-02-02T03:59:09;16;15;
30342;PMS5003;17145;49.902;8.680;2023-02-02T04:01:37;15;14;
30342;PMS5003;17145;49.902;8.680;2023-02-02T04:04:04;12;11;
30342;PMS5003;17145;49.902;8.680;2023-02-02T04:06:31;15;15;
30342;PMS5003;17145;49.902;8.680;2023-02-02T04:08:59;16;15;
30342;PMS5003;17145;49.902;8.680;2023-02-02T04:11:26;19;15;
30342;PMS5003;17145;49.902;8.680;2023-02-02T04:13:53;14;11;
30342;PMS5003;17145;49.902;8.680;2023-02-02T04:16:21;14;14;
30342;PMS5003;17145;49.902;8.680;2023-02-02T04:18:48;11;11;
30342;PMS5003;17145;49.902;8.680;2023-02-02T04:21:15;14;12;
30342;PMS5003;17145;49.902;8.680;2023-02-02T04:23:43;11;11;
30342;PMS5003;17145;49.902;8.680;2023-02-02T04:26:10;16;15;
30342;PMS5003;17145;49.902;8.680;2023-02-02T04:28:38;11;11;
30342;PMS5003;17145;49.902;8.680;2023-02-02T04:31:05;12;10;
30342;PMS5003;17145;49.902;8.680;2023-02-02T04:33:33;11;11;
30342;PMS5003;17145;49.902;8.680;2023-02-02T04:36:00;14;11;
30342;PMS5003;17145;49.902;8.680;2023-02-02T04:38:28;8;8;
30342;PMS5003;17145;49.902;8.680;2023-02-02T04:40:55;15;12;
30342;PMS5003;17145;49.902;8.680;2023-02-02T04:43:23;15;11;
30342;PMS5003;17145;49.902;8.680;2023-02-02T04:45:53;15;14;
30342;PMS5003;17145;49.902;8.680;2023-02-02T04:48:21;10;9;
30342;PMS5003;17145;49.902;8.680;2023-02-02T04:50:48;11;10;
30342;PMS5003;17145;49.902;8.680;2023-02-02T04:53:16;10;10;
30342;PMS5003;17145;49.902;8.680;2023-02-02T04:55:43;9;7;
30342;PMS5003;17145;49.902;8.680;2023-02-02T04:58:11;9;9;
30342;PMS5003;17145;49.902;8.680;2023-02-02T05:00:38;9;9;
30342;PMS5003;17145;49.902;8.680;2023-02-02T05:03:06;12;10;
30342;PMS5003;17145;49.902;8.680;2023-02-02T05:05:33;10;7;
30342;PMS5003;17145;49.902;8.680;2023-02-02T05:08:00;10;7;
30342;PMS5003;17145;49.902;8.680;2023-02-02T05:10:28;8;7;
30342;PMS5003;17145;49.902;8.680;2023-02-02T05:12:56;8;7;
30342;PMS5003;17145;49.902;8.680;2023-02-02T05:15:23;7;7;
30342;PMS5003;17145;49.902;8.680;2023-02-02T05:17:50;6;6;
30342;PMS5003;17145;49.902;8.680;2023-02-02T05:20:18;7;6;
30342;PMS5003;17145;49.902;8.680;2023-02-02T05:22:47;8;7;
30342;PMS5003;17145;49.902;8.680;2023-02-02T05:25:15;7;7;
30342;PMS5003;17145;49.902;8.680;2023-02-02T05:27:43;8;8;
30342;PMS5003;17145;49.902;8.680;2023-02-02T05:30:12;12;11;
30342;PMS5003;17145;49.902;8.680;2023-02-02T05:32:40;15;12;
30342;PMS5003;17145;49.902;8.680;2023-02-02T05:35:08;18;16;
30342;PMS5003;17145;49.902;8.680;2023-02-02T05:37:36;15;15;
30342;PMS5003;17145;49.902;8.680;2023-02-02T05:40:04;20;16;
30342;PMS5003;17145;49.902;8.680;2023-02-02T05:42:32;16;14;
30342;PMS5003;17145;49.902;8.680;2023-02-02T05:45:00;12;12;
30342;PMS5003;17145;49.902;8.680;2023-02-02T05:47:27;12;11;
30342;PMS5003;17145;49.902;8.680;2023-02-02T05:49:55;14;14;
30342;PMS5003;17145;49.902;8.680;2023-02-02T05:52:22;12;11;
30342;PMS5003;17145;49.902;8.680;2023-02-02T05:54:52;11;10;
30342;PMS5003;17145;49.902;8.680;2023-02-02T05:57:19;11;10;
30342;PMS5003;17145;49.902;8.680;2023-02-02T05:59:46;12;12;
30342;PMS5003;17145;49.902;8.680;2023-02-02T06:02:14;12;12;
30342;PMS5003;17145;49.902;8.680;2023-02-02T06:04:41;11;11;
30342;PMS5003;17145;49.902;8.680;2023-02-02T06:07:08;10;10;
30342;PMS5003;17145;49.902;8.680;2023-02-02T06:09:35;17;11;
30342;PMS5003;17145;49.902;8.680;2023-02-02T06:12:03;10;10;
30342;PMS5003;17145;49.902;8.680;2023-02-02T06:14:31;17;10;
30342;PMS5003;17145;49.902;8.680;2023-02-02T06:16:58;10;8;
30342;PMS5003;17145;49.902;8.680;2023-02-02T06:19:26;10;10;
30342;PMS5003;17145;49.902;8.680;2023-02-02T06:21:53;10;10;
30342;PMS5003;17145;49.902;8.680;2023-02-02T06:24:21;8;8;
30342;PMS5003;17145;49.902;8.680;2023-02-02T06:26:48;9;7;
30342;PMS5003;17145;49.902;8.680;2023-02-02T06:29:16;14;12;
30342;PMS5003;17145;49.902;8.680;2023-02-02T06:31:43;7;6;
30342;PMS5003;17145;49.902;8.680;2023-02-02T06:34:11;7;7;
30342;PMS5003;17145;49.902;8.680;2023-02-02T06:36:40;7;6;
30342;PMS5003;17145;49.902;8.680;2023-02-02T06:39:08;11;11;
30342;PMS5003;17145;49.902;8.680;2023-02-02T06:41:35;6;6;
30342;PMS5003;17145;49.902;8.680;2023-02-02T06:44:03;10;8;
30342;PMS5003;17145;49.902;8.680;2023-02-02T06:46:30;10;8;
30342;PMS5003;17145;49.902;8.680;2023-02-02T06:48:58;10;10;
30342;PMS5003;17145;49.902;8.680;2023-02-02T06:51:25;10;8;
30342;PMS5003;17145;49.902;8.680;2023-02-02T06:53:52;9;9;
30342;PMS5003;17145;49.902;8.680;2023-02-02T06:56:20;11;10;
30342;PMS5003;17145;49.902;8.680;2023-02-02T06:58:47;10;8;
30342;PMS5003;17145;49.902;8.680;2023-02-02T07:01:15;8;7;
30342;PMS5003;17145;49.902;8.680;2023-02-02T07:03:42;11;10;
30342;PMS5003;17145;49.902;8.680;2023-02-02T07:06:14;12;12;
30342;PMS5003;17145;49.902;8.680;2023-02-02T07:08:43;9;9;
30342;PMS5003;17145;49.902;8.680;2023-02-02T07:11:11;11;10;
30342;PMS5003;17145;49.902;8.680;2023-02-02T07:13:40;14;12;
30342;PMS5003;17145;49.902;8.680;2023-02-02T07:16:07;14;14;
30342;PMS5003;17145;49.902;8.680;2023-02-02T07:18:34;19;18;
30342;PMS5003;17145;49.902;8.680;2023-02-02T07:21:02;12;12;
30342;PMS5003;17145;49.902;8.680;2023-02-02T07:23:31;14;12;
30342;PMS5003;17145;49.902;8.680;2023-02-02T07:26:00;10;9;
30342;PMS5003;17145;49.902;8.680;2023-02-02T07:28:28;12;11;
30342;PMS5003;17145;49.902;8.680;2023-02-02T07:30:55;12;11;
30342;PMS5003;17145;49.902;8.680;2023-02-02T07:33:23;12;11;
30342;PMS5003;17145;49.902;8.680;2023-02-02T07:35:51;11;11;
30342;PMS5003;17145;49.902;8.680;2023-02-02T07:38:18;15;14;
30342;PMS5003;17145;49.902;8.680;2023-02-02T07:40:45;14;12;
30342;PMS5003;17145;49.902;8.680;2023-02-02T07:43:13;15;14;
30342;PMS5003;17145;49.902;8.680;2023-02-02T07:45:40;11;10;
30342;PMS5003;17145;49.902;8.680;2023-02-02T07:48:08;12;12;
30342;PMS5003;17145;49.902;8.680;2023-02-02T07:50:35;14;11;
30342;PMS5003;17145;49.902;8.680;2023-02-02T07:53:03;12;12;
30342;PMS5003;17145;49.902;8.680;2023-02-02T07:55:30;10;10;
30342;PMS5003;17145;49.902;8.680;2023-02-02T07:57:58;11;11;
30342;PMS5003;17145;49.902;8.680;2023-02-02T08:00:25;10;8;
30342;PMS5003;17145;49.902;8.680;2023-02-02T08:02:53;14;11;
30342;PMS5003;17145;49.902;8.680;2023-02-02T08:05:21;10;10;
30342;PMS5003;17145;49.902;8.680;2023-02-02T08:07:48;7;7;
30342;PMS5003;17145;49.902;8.680;2023-02-02T08:10:16;12;11;
30342;PMS5003;17145;49.902;8.680;2023-02-02T08:12:43;21;20;
30342;PMS5003;17145;49.902;8.680;2023-02-02T08:15:10;26;17;
30342;PMS5003;17145;49.902;8.680;2023-02-02T08:17:38;22;22;
30342;PMS5003;17145;49.902;8.680;2023-02-02T08:20:06;23;21;
30342;PMS5003;17145;49.902;8.680;2023-02-02T08:22:34;25;25;
30342;PMS5003;17145;49.902;8.680;2023-02-02T08:25:01;30;21;
30342;PMS5003;17145;49.902;8.680;2023-02-02T08:27:28;25;21;
30342;PMS5003;17145;49.902;8.680;2023-02-02T08:29:56;24;21;
30342;PMS5003;17145;49.902;8.680;2023-02-02T08:32:23;23;19;
30342;PMS5003;17145;49.902;8.680;2023-02-02T08:34:50;20;19;
30342;PMS5003;17145;49.902;8.680;2023-02-02T08:37:18;21;20;
30342;PMS5003;17145;49.902;8.680;2023-02-02T08:39:45;17;17;
30342;PMS5003;17145;49.902;8.680;2023-02-02T08:42:13;15;14;
30342;PMS5003;17145;49.902;8.680;2023-02-02T08:44:40;14;14;
30342;PMS5003;17145;49.902;8.680;2023-02-02T08:47:08;19;16;
30342;PMS5003;17145;49.902;8.680;2023-02-02T08:49:35;16;15;
30342;PMS5003;17145;49.902;8.680;2023-02-02T08:52:03;15;14;
30342;PMS5003;17145;49.902;8.680;2023-02-02T08:54:30;15;14;
30342;PMS5003;17145;49.902;8.680;2023-02-02T08:56:57;23;12;
30342;PMS5003;17145;49.902;8.680;2023-02-02T08:59:25;14;12;
30342;PMS5003;17145;49.902;8.680;2023-02-02T09:01:52;16;15;
30342;PMS5003;17145;49.902;8.680;2023-02-02T09:04:19;14;11;
30342;PMS5003;17145;49.902;8.680;2023-02-02T09:06:47;15;12;
30342;PMS5003;17145;49.902;8.680;2023-02-02T09:09:14;11;8;
30342;PMS5003;17145;49.902;8.680;2023-02-02T09:11:43;11;10;
30342;PMS5003;17145;49.902;8.680;2023-02-02T09:14:11;11;11;
30342;PMS5003;17145;49.902;8.680;2023-02-02T09:16:39;14;12;
30342;PMS5003;17145;49.902;8.680;2023-02-02T09:19:08;14;14;
30342;PMS5003;17145;49.902;8.680;2023-02-02T09:21:36;10;10;
30342;PMS5003;17145;49.902;8.680;2023-02-02T09:24:06;12;12;
30342;PMS5003;17145;49.902;8.680;2023-02-02T09:26:35;10;10;
30342;PMS5003;17145;49.902;8.680;2023-02-02T09:29:03;10;8;
30342;PMS5003;17145;49.902;8.680;2023-02-02T09:31:33;11;10;
30342;PMS5003;17145;49.902;8.680;2023-02-02T09:34:02;12;7;
30342;PMS5003;17145;49.902;8.680;2023-02-02T09:36:30;8;7;
30342;PMS5003;17145;49.902;8.680;2023-02-02T09:38:59;8;6;
30342;PMS5003;17145;49.902;8.680;2023-02-02T09:41:38;8;6;
30342;PMS5003;17145;49.902;8.680;2023-02-02T09:44:25;14;10;
30342;PMS5003;17145;49.902;8.680;2023-02-02T09:47:07;8;8;
30342;PMS5003;17145;49.902;8.680;2023-02-02T09:49:45;10;10;
30342;PMS5003;17145;49.902;8.680;2023-02-02T09:52:23;11;8;
30342;PMS5003;17145;49.902;8.680;2023-02-02T09:54:56;12;12;
30342;PMS5003;17145;49.902;8.680;2023-02-02T09:57:30;15;11;
30342;PMS5003;17145;49.902;8.680;2023-02-02T10:00:03;17;16;
30342;PMS5003;17145;49.902;8.680;2023-02-02T10:02:38;16;14;
30342;PMS5003;17145;49.902;8.680;2023-02-02T10:05:11;16;16;
30342;PMS5003;17145;49.902;8.680;2023-02-02T10:07:43;15;15;
30342;PMS5003;17145;49.902;8.680;2023-02-02T10:10:15;15;14;
30342;PMS5003;17145;49.902;8.680;2023-02-02T10:12:48;12;12;
30342;PMS5003;17145;49.902;8.680;2023-02-02T10:15:25;15;15;
30342;PMS5003;17145;49.902;8.680;2023-02-02T10:18:01;16;15;
30342;PMS5003;17145;49.902;8.680;2023-02-02T10:20:37;15;14;
30342;PMS5003;17145;49.902;8.680;2023-02-02T10:23:13;12;12;
30342;PMS5003;17145;49.902;8.680;2023-02-02T10:25:55;16;14;
30342;PMS5003;17145;49.902;8.680;2023-02-02T10:28:28;12;12;
30342;PMS5003;17145;49.902;8.680;2023-02-02T10:31:08;12;11;
30342;PMS5003;17145;49.902;8.680;2023-02-02T10:33:43;12;11;
30342;PMS5003;17145;49.902;8.680;2023-02-02T10:36:22;11;11;
30342;PMS5003;17145;49.902;8.680;2023-02-02T10:38:59;10;10;
30342;PMS5003;17145;49.902;8.680;2023-02-02T10:41:32;17;14;
30342;PMS5003;17145;49.902;8.680;2023-02-02T10:44:12;12;12;
30342;PMS5003;17145;49.902;8.680;2023-02-02T10:46:47;14;11;
30342;PMS5003;17145;49.902;8.680;2023-02-02T10:49:21;12;10;
30342;PMS5003;17145;49.902;8.680;2023-02-02T10:51:55;14;11;
30342;PMS5003;17145;49.902;8.680;2023-02-02T10:54:33;15;14;
30342;PMS5003;17145;49.902;8.680;2023-02-02T10:57:10;15;12;
30342;PMS5003;17145;49.902;8.680;2023-02-02T10:59:43;12;11;
30342;PMS5003;17145;49.902;8.680;2023-02-02T11:02:17;15;10;
30342;PMS5003;17145;49.902;8.680;2023-02-02T11:04:44;8;8;
30342;PMS5003;17145;49.902;8.680;2023-02-02T11:07:12;15;11;
30342;PMS5003;17145;49.902;8.680;2023-02-02T11:09:40;16;14;
30342;PMS5003;17145;49.902;8.680;2023-02-02T11:12:12;11;10;
30342;PMS5003;17145;49.902;8.680;2023-02-02T11:14:46;11;11;
30342;PMS5003;17145;49.902;8.680;2023-02-02T11:17:18;11;10;
30342;PMS5003;17145;49.902;8.680;2023-02-02T11:19:48;11;8;
30342;PMS5003;17145;49.902;8.680;2023-02-02T11:22:23;15;11;
30342;PMS5003;17145;49.902;8.680;2023-02-02T11:24:54;12;11;
30342;PMS5003;17145;49.902;8.680;2023-02-02T11:27:26;11;11;
30342;PMS5003;17145;49.902;8.680;2023-02-02T11:29:57;14;12;
30342;PMS5003;17145;49.902;8.680;2023-02-02T11:32:31;14;10;
30342;PMS5003;17145;49.902;8.680;2023-02-02T11:40:27;10;10;
30342;PMS5003;17145;49.902;8.680;2023-02-02T11:43:00;8;8;
30342;PMS5003;17145;49.902;8.680;2023-02-02T11:45:32;11;8;
30342;PMS5003;17145;49.902;8.680;2023-02-02T11:48:02;10;8;
30342;PMS5003;17145;49.902;8.680;2023-02-02T11:50:33;8;8;
30342;PMS5003;17145;49.902;8.680;2023-02-02T11:53:02;7;7;
30342;PMS5003;17145;49.902;8.680;2023-02-02T11:55:29;10;10;
30342;PMS5003;17145;49.902;8.680;2023-02-02T12:05:49;7;7;
30342;PMS5003;17145;49.902;8.680;2023-02-02T12:08:17;8;6;
30342;PMS5003;17145;49.902;8.680;2023-02-02T12:10:46;6;6;
30342;PMS5003;17145;49.902;8.680;2023-02-02T12:13:23;8;6;
30342;PMS5003;17145;49.902;8.680;2023-02-02T12:16:04;7;6;
30342;PMS5003;17145;49.902;8.680;2023-02-02T12:18:47;12;11;
30342;PMS5003;17145;49.902;8.680;2023-02-02T12:21:27;11;10;
30342;PMS5003;17145;49.902;8.680;2023-02-02T12:26:46;12;11;
30342;PMS5003;17145;49.902;8.680;2023-02-02T12:29:29;11;11;
30342;PMS5003;17145;49.902;8.680;2023-02-02T12:32:16;14;12;
30342;PMS5003;17145;49.902;8.680;2023-02-02T12:34:56;11;10;
30342;PMS5003;17145;49.902;8.680;2023-02-02T12:37:37;10;7;
30342;PMS5003;17145;49.902;8.680;2023-02-02T12:40:19;12;9;
30342;PMS5003;17145;49.902;8.680;2023-02-02T12:42:59;7;7;
30342;PMS5003;17145;49.902;8.680;2023-02-02T12:45:40;7;7;
30342;PMS5003;17145;49.902;8.680;2023-02-02T12:48:20;10;7;
30342;PMS5003;17145;49.902;8.680;2023-02-02T12:51:02;6;6;
30342;PMS5003;17145;49.902;8.680;2023-02-02T12:53:49;9;7;
30342;PMS5003;17145;49.902;8.680;2023-02-02T12:56:28;9;7;
30342;PMS5003;17145;49.902;8.680;2023-02-02T12:59:05;10;7;
30342;PMS5003;17145;49.902;8.680;2023-02-02T13:01:45;9;9;
30342;PMS5003;17145;49.902;8.680;2023-02-02T13:04:28;7;6;
30342;PMS5003;17145;49.902;8.680;2023-02-02T13:07:10;7;6;
30342;PMS5003;17145;49.902;8.680;2023-02-02T13:09:49;7;7;
30342;PMS5003;17145;49.902;8.680;2023-02-02T13:12:23;7;6;
30342;PMS5003;17145;49.902;8.680;2023-02-02T13:14:53;10;9;
30342;PMS5003;17145;49.902;8.680;2023-02-02T13:17:26;9;7;
30342;PMS5003;17145;49.902;8.680;2023-02-02T13:19:59;6;5;
30342;PMS5003;17145;49.902;8.680;2023-02-02T13:22:31;7;6;
30342;PMS5003;17145;49.902;8.680;2023-02-02T13:25:04;10;9;
30342;PMS5003;17145;49.902;8.680;2023-02-02T13:27:37;7;6;
30342;PMS5003;17145;49.902;8.680;2023-02-02T13:30:10;6;6;
30342;PMS5003;17145;49.902;8.680;2023-02-02T13:32:44;10;9;
30342;PMS5003;17145;49.902;8.680;2023-02-02T13:35:15;7;7;
30342;PMS5003;17145;49.902;8.680;2023-02-02T13:37:48;6;6;
30342;PMS5003;17145;49.902;8.680;2023-02-02T13:40:23;5;5;
30342;PMS5003;17145;49.902;8.680;2023-02-02T13:42:54;6;6;
30342;PMS5003;17145;49.902;8.680;2023-02-02T13:45:33;7;7;
30342;PMS5003;17145;49.902;8.680;2023-02-02T13:48:10;7;7;
30342;PMS5003;17145;49.902;8.680;2023-02-02T13:50:46;14;11;
30342;PMS5003;17145;49.902;8.680;2023-02-02T13:53:30;15;14;
30342;PMS5003;17145;49.902;8.680;2023-02-02T13:58:51;16;14;
30342;PMS5003;17145;49.902;8.680;2023-02-02T14:01:32;10;8;
30342;PMS5003;17145;49.902;8.680;2023-02-02T14:03:59;15;14;
30342;PMS5003;17145;49.902;8.680;2023-02-02T14:06:27;15;14;
30342;PMS5003;17145;49.902;8.680;2023-02-02T14:09:00;12;11;
30342;PMS5003;17145;49.902;8.680;2023-02-02T14:11:31;15;14;
30342;PMS5003;17145;49.902;8.680;2023-02-02T14:14:05;16;15;
30342;PMS5003;17145;49.902;8.680;2023-02-02T14:16:42;10;10;
30342;PMS5003;17145;49.902;8.680;2023-02-02T14:19:14;14;14;
30342;PMS5003;17145;49.902;8.680;2023-02-02T14:29:57;16;13;
30342;PMS5003;17145;49.902;8.680;2023-02-02T14:32:28;22;16;
30342;PMS5003;17145;49.902;8.680;2023-02-02T14:34:58;14;13;
30342;PMS5003;17145;49.902;8.680;2023-02-02T14:37:40;15;13;
30342;PMS5003;17145;49.902;8.680;2023-02-02T14:40:20;16;14;
30342;PMS5003;17145;49.902;8.680;2023-02-02T14:42:58;15;14;
30342;PMS5003;17145;49.902;8.680;2023-02-02T14:45:35;17;14;
30342;PMS5003;17145;49.902;8.680;2023-02-02T14:48:07;13;11;
30342;PMS5003;17145;49.902;8.680;2023-02-02T14:50:41;22;18;
30342;PMS5003;17145;49.902;8.680;2023-02-02T14:53:15;18;14;
30342;PMS5003;17145;49.902;8.680;2023-02-02T14:55:51;14;14;
30342;PMS5003;17145;49.902;8.680;2023-02-02T14:58:23;17;15;
30342;PMS5003;17145;49.902;8.680;2023-02-02T15:00:55;15;14;
30342;PMS5003;17145;49.902;8.680;2023-02-02T15:03:33;22;20;
30342;PMS5003;17145;49.902;8.680;2023-02-02T15:06:13;22;20;
30342;PMS5003;17145;49.902;8.680;2023-02-02T15:08:45;15;14;
30342;PMS5003;17145;49.902;8.680;2023-02-02T15:11:22;19;17;
30342;PMS5003;17145;49.902;8.680;2023-02-02T15:13:56;17;15;
30342;PMS5003;17145;49.902;8.680;2023-02-02T15:16:29;14;13;
30342;PMS5003;17145;49.902;8.680;2023-02-02T15:19:03;13;13;
30342;PMS5003;17145;49.902;8.680;2023-02-02T15:21:40;15;15;
30342;PMS5003;17145;49.902;8.680;2023-02-02T15:24:17;17;15;
30342;PMS5003;17145;49.902;8.680;2023-02-02T15:26:48;14;11;
30342;PMS5003;17145;49.902;8.680;2023-02-02T15:29:18;18;16;
30342;PMS5003;17145;49.902;8.680;2023-02-02T15:31:54;18;14;
30342;PMS5003;17145;49.902;8.680;2023-02-02T15:34:24;18;16;
30342;PMS5003;17145;49.902;8.680;2023-02-02T15:36:57;15;13;
30342;PMS5003;17145;49.902;8.680;2023-02-02T15:39:30;16;15;
30342;PMS5003;17145;49.902;8.680;2023-02-02T15:42:00;15;13;
30342;PMS5003;17145;49.902;8.680;2023-02-02T15:44:31;16;14;
30342;PMS5003;17145;49.902;8.680;2023-02-02T15:47:02;16;15;
30342;PMS5003;17145;49.902;8.680;2023-02-02T15:49:32;18;14;
30342;PMS5003;17145;49.902;8.680;2023-02-02T15:52:03;27;11;
30342;PMS5003;17145;49.902;8.680;2023-02-02T15:54:41;15;14;
30342;PMS5003;17145;49.902;8.680;2023-02-02T15:57:22;14;13;
30342;PMS5003;17145;49.902;8.680;2023-02-02T15:59:53;14;11;
30342;PMS5003;17145;49.902;8.680;2023-02-02T16:02:24;14;13;
30342;PMS5003;17145;49.902;8.680;2023-02-02T16:04:58;15;13;
30342;PMS5003;17145;49.902;8.680;2023-02-02T16:07:27;11;10;
30342;PMS5003;17145;49.902;8.680;2023-02-02T16:10:00;10;10;
30342;PMS5003;17145;49.902;8.680;2023-02-02T16:12:30;14;14;
30342;PMS5003;17145;49.902;8.680;2023-02-02T16:14:57;14;13;
30342;PMS5003;17145;49.902;8.680;2023-02-02T16:17:26;13;11;
30342;PMS5003;17145;49.902;8.680;2023-02-02T16:19:56;10;9;
30342;PMS5003;17145;49.902;8.680;2023-02-02T16:22:27;14;11;
30342;PMS5003;17145;49.902;8.680;2023-02-02T16:24:57;11;11;
30342;PMS5003;17145;49.902;8.680;2023-02-02T16:27:28;15;13;
30342;PMS5003;17145;49.902;8.680;2023-02-02T16:29:58;12;10;
30342;PMS5003;17145;49.902;8.680;2023-02-02T16:32:32;13;11;
30342;PMS5003;17145;49.902;8.680;2023-02-02T16:35:01;14;11;
30342;PMS5003;17145;49.902;8.680;2023-02-02T16:37:31;11;11;
30342;PMS5003;17145;49.902;8.680;2023-02-02T16:42:43;11;11;
30342;PMS5003;17145;49.902;8.680;2023-02-02T16:47:52;26;19;
30342;PMS5003;17145;49.902;8.680;2023-02-02T16:50:24;14;13;
30342;PMS5003;17145;49.902;8.680;2023-02-02T16:52:56;15;13;
30342;PMS5003;17145;49.902;8.680;2023-02-02T16:55:28;18;15;
30342;PMS5003;17145;49.902;8.680;2023-02-02T16:57:57;17;17;
30342;PMS5003;17145;49.902;8.680;2023-02-02T17:00:26;17;15;
30342;PMS5003;17145;49.902;8.680;2023-02-02T17:02:57;23;17;
30342;PMS5003;17145;49.902;8.680;2023-02-02T17:05:29;21;18;
30342;PMS5003;17145;49.902;8.680;2023-02-02T17:07:59;22;19;
30342;PMS5003;17145;49.902;8.680;2023-02-02T17:10:29;21;19;
30342;PMS5003;17145;49.902;8.680;2023-02-02T17:12:59;21;18;
30342;PMS5003;17145;49.902;8.680;2023-02-02T17:15:29;23;22;
30342;PMS5003;17145;49.902;8.680;2023-02-02T17:17:59;29;25;
30342;PMS5003;17145;49.902;8.680;2023-02-02T17:20:27;51;48;
30342;PMS5003;17145;49.902;8.680;2023-02-02T17:22:57;54;50;
30342;PMS5003;17145;49.902;8.680;2023-02-02T17:25:28;27;17;
30342;PMS5003;17145;49.902;8.680;2023-02-02T17:27:58;22;18;
30342;PMS5003;17145;49.902;8.680;2023-02-02T17:30:27;41;40;